Time;durP1;ratioP1;P1;durP2;ratioP2;P2;SDS_P1;SDS_P2;PMS_P1;PMS_P2;Temp;Humidity;BMP_temperature;BMP_pressure;BME280_temperature;BME280_humidity;BME280_pressure;Samples;Min_cycle;Max_cycle;Signal;HPM_P1;HPM_P2
2024/02/07 00:01:33;;;;;;;;;;;17.50;42.70;;;;;;1520878;76;648;-70
2024/02/07 00:03:35;;;;;;;;;;;17.60;42.70;;;;;;1524962;76;1937;-71
2024/02/07 00:05:37;;;;;;;;;;;17.50;42.60;;;;;;1524298;76;729;-70
2024/02/07 00:07:39;;;;;;;;;;;17.50;42.70;;;;;;1523934;76;1549;-70
2024/02/07 00:09:41;;;;;;;;;;;17.50;42.60;;;;;;1519642;76;736;-69
2024/02/07 00:11:43;;;;;;;;;;;17.60;42.70;;;;;;1516836;76;683;-70
2024/02/07 00:13:44;;;;;;;;;;;17.50;42.70;;;;;;1525637;76;1134;-69
2024/02/07 00:15:46;;;;;;;;;;;17.50;42.70;;;;;;1526983;76;722;-68
2024/02/07 00:17:48;;;;;;;;;;;17.60;42.70;;;;;;1523527;76;703;-69
2024/02/07 00:19:50;;;;;;;;;;;17.50;42.70;;;;;;1524507;76;693;-70
2024/02/07 00:21:52;;;;;;;;;;;17.60;42.60;;;;;;1522689;76;670;-70
2024/02/07 00:23:54;;;;;;;;;;;17.50;42.70;;;;;;1525512;76;1933;-71
2024/02/07 00:25:56;;;;;;;;;;;17.50;42.60;;;;;;1523390;76;643;-70
2024/02/07 00:27:58;;;;;;;;;;;17.50;42.60;;;;;;1521261;76;719;-70
2024/02/07 00:30:00;;;;;;;;;;;17.60;42.70;;;;;;1520912;76;690;-70
2024/02/07 00:32:02;;;;;;;;;;;17.60;42.60;;;;;;1524658;76;713;-70
2024/02/07 00:34:04;;;;;;;;;;;17.50;42.70;;;;;;1523954;76;1090;-70
2024/02/07 00:36:06;;;;;;;;;;;17.50;42.70;;;;;;1521635;76;684;-70
2024/02/07 00:38:07;;;;;;;;;;;17.50;42.70;;;;;;1525608;76;709;-70
2024/02/07 00:40:13;;;;;;;;;;;17.50;42.70;;;;;;1518050;76;665;-70
2024/02/07 00:42:15;;;;;;;;;;;17.50;42.70;;;;;;1520460;76;1145;-70
2024/02/07 00:44:17;;;;;;;;;;;17.50;42.70;;;;;;1518147;76;667;-70
2024/02/07 00:46:19;;;;;;;;;;;17.50;42.60;;;;;;1522658;76;784;-69
2024/02/07 00:48:20;;;;;;;;;;;17.60;42.70;;;;;;1526601;76;611;-69
2024/02/07 00:50:22;;;;;;;;;;;17.60;42.70;;;;;;1525382;76;709;-70
2024/02/07 00:52:24;;;;;;;;;;;17.50;42.70;;;;;;1525767;76;1102;-70
2024/02/07 00:54:27;;;;;;;;;;;17.50;42.60;;;;;;1522424;76;704;-69
2024/02/07 00:56:29;;;;;;;;;;;17.50;42.70;;;;;;1521690;76;676;-70
2024/02/07 00:58:31;;;;;;;;;;;17.50;42.60;;;;;;1521746;76;719;-70
2024/02/07 01:00:33;;;;;;;;;;;17.60;42.60;;;;;;1521702;76;716;-70
2024/02/07 01:02:35;;;;;;;;;;;17.60;42.60;;;;;;1526135;76;1929;-69
2024/02/07 01:04:37;;;;;;;;;;;17.60;42.60;;;;;;1522927;76;700;-70
2024/02/07 01:06:39;;;;;;;;;;;17.50;42.70;;;;;;1522129;76;654;-69
2024/02/07 01:08:42;;;;;;;;;;;17.60;42.70;;;;;;1520549;76;1560;-68
2024/02/07 01:10:45;;;;;;;;;;;17.50;42.70;;;;;;1516707;76;643;-70
2024/02/07 01:12:47;;;;;;;;;;;17.50;42.70;;;;;;1524570;76;1086;-69
2024/02/07 01:14:49;;;;;;;;;;;17.50;42.70;;;;;;1522491;76;759;-71
2024/02/07 01:16:51;;;;;;;;;;;17.50;42.60;;;;;;1522885;76;715;-70
2024/02/07 01:18:53;;;;;;;;;;;17.60;42.60;;;;;;1523501;76;641;-69
2024/02/07 01:20:54;;;;;;;;;;;17.50;42.60;;;;;;1524792;76;712;-70
2024/02/07 01:22:56;;;;;;;;;;;17.50;42.60;;;;;;1521279;76;1956;-69
2024/02/07 01:24:59;;;;;;;;;;;17.50;42.70;;;;;;1522195;76;747;-70
2024/02/07 01:27:01;;;;;;;;;;;17.60;42.70;;;;;;1523149;76;693;-68
2024/02/07 01:29:03;;;;;;;;;;;17.50;42.60;;;;;;1523664;76;635;-69
2024/02/07 01:31:05;;;;;;;;;;;17.50;42.60;;;;;;1519317;76;704;-71
2024/02/07 01:33:07;;;;;;;;;;;17.50;42.60;;;;;;1523075;76;1076;-71
2024/02/07 01:35:12;;;;;;;;;;;17.50;42.60;;;;;;1528708;76;682;-70
2024/02/07 01:37:14;;;;;;;;;;;17.60;42.70;;;;;;1522400;76;744;-71
2024/02/07 01:39:18;;;;;;;;;;;17.50;42.60;;;;;;1522440;76;713;-68
2024/02/07 01:41:23;;;;;;;;;;;17.50;42.70;;;;;;1520628;76;757;-70
2024/02/07 01:43:29;;;;;;;;;;;17.50;42.60;;;;;;1525068;76;1944;-70
2024/02/07 01:45:33;;;;;;;;;;;17.60;42.70;;;;;;1528384;76;1059;-69
2024/02/07 01:47:35;;;;;;;;;;;17.50;42.60;;;;;;1523410;76;805;-69
2024/02/07 01:49:37;;;;;;;;;;;17.50;42.60;;;;;;1525485;76;743;-70
2024/02/07 01:51:39;;;;;;;;;;;17.50;42.60;;;;;;1524286;76;615;-70
2024/02/07 01:53:41;;;;;;;;;;;17.50;42.60;;;;;;1524152;76;1113;-70
2024/02/07 01:55:44;;;;;;;;;;;17.50;42.60;;;;;;1522778;76;747;-70
2024/02/07 01:57:46;;;;;;;;;;;17.50;42.60;;;;;;1524332;76;746;-71
2024/02/07 01:59:48;;;;;;;;;;;17.50;42.60;;;;;;1524841;76;745;-69
2024/02/07 02:01:50;;;;;;;;;;;17.60;42.70;;;;;;1522262;76;734;-68
2024/02/07 02:03:52;;;;;;;;;;;17.50;42.60;;;;;;1526527;76;1946;-69
2024/02/07 02:05:55;;;;;;;;;;;17.50;42.60;;;;;;1522878;76;625;-68
2024/02/07 02:07:57;;;;;;;;;;;17.50;42.60;;;;;;1524981;76;1534;-70
2024/02/07 02:09:59;;;;;;;;;;;17.50;42.60;;;;;;1522670;76;787;-70
2024/02/07 02:12:01;;;;;;;;;;;17.50;42.60;;;;;;1520448;76;581;-70
2024/02/07 02:14:03;;;;;;;;;;;17.50;42.60;;;;;;1524111;76;1067;-70
2024/02/07 02:16:05;;;;;;;;;;;17.50;42.60;;;;;;1520877;76;744;-70
2024/02/07 02:18:07;;;;;;;;;;;17.50;42.70;;;;;;1523298;76;730;-70
2024/02/07 02:20:09;;;;;;;;;;;17.50;42.60;;;;;;1524519;76;724;-70
2024/02/07 02:22:12;;;;;;;;;;;17.50;42.60;;;;;;1522001;76;1142;-69
2024/02/07 02:24:16;;;;;;;;;;;17.60;42.60;;;;;;1525441;76;1932;-71
2024/02/07 02:26:19;;;;;;;;;;;17.60;42.60;;;;;;1524768;76;883;-70
2024/02/07 02:28:31;;;;;;;;;;;17.60;42.60;;;;;;1505253;76;1032;-70
2024/02/07 02:30:40;;;;;;;;;;;17.50;42.60;;;;;;1525258;76;728;-70
2024/02/07 02:32:40;;;;;;;;;;;17.50;42.60;;;;;;1523810;76;1154;-70
2024/02/07 02:34:42;;;;;;;;;;;17.50;42.60;;;;;;1524881;76;1039;-69
2024/02/07 02:36:43;;;;;;;;;;;17.50;42.60;;;;;;1528589;76;724;-70
2024/02/07 02:38:45;;;;;;;;;;;17.50;42.60;;;;;;1523440;76;664;-70
2024/02/07 02:40:48;;;;;;;;;;;17.50;42.50;;;;;;1520540;76;719;-70
2024/02/07 02:42:50;;;;;;;;;;;17.50;42.60;;;;;;1526071;76;1099;-70
2024/02/07 02:44:52;;;;;;;;;;;17.50;42.60;;;;;;1521710;76;1948;-68
2024/02/07 02:46:54;;;;;;;;;;;17.50;42.60;;;;;;1518449;76;878;-71
2024/02/07 02:48:56;;;;;;;;;;;17.50;42.60;;;;;;1522822;76;633;-70
2024/02/07 02:50:59;;;;;;;;;;;17.50;42.60;;;;;;1523771;76;535;-69
2024/02/07 02:53:01;;;;;;;;;;;17.50;42.60;;;;;;1524148;76;1130;-71
2024/02/07 02:55:04;;;;;;;;;;;17.50;42.60;;;;;;1523104;76;727;-71
2024/02/07 02:57:07;;;;;;;;;;;17.50;42.60;;;;;;1524004;76;761;-69
2024/02/07 02:59:10;;;;;;;;;;;17.50;42.50;;;;;;1525092;76;693;-69
2024/02/07 03:01:12;;;;;;;;;;;17.50;42.60;;;;;;1522214;76;752;-70
2024/02/07 03:03:14;;;;;;;;;;;17.50;42.60;;;;;;1526240;76;1927;-69
2024/02/07 03:08:21;;;;;;;;;;;17.50;42.60;;;;;;1521714;76;1590;-70
2024/02/07 03:09:48;;;;;;;;;;;17.50;42.60;;;;;;1509587;76;1200;-70
2024/02/07 03:11:45;;;;;;;;;;;17.50;42.60;;;;;;1518105;76;1095;-70
2024/02/07 03:13:48;;;;;;;;;;;17.50;42.60;;;;;;1525000;76;1090;-71
2024/02/07 03:15:50;;;;;;;;;;;17.50;42.60;;;;;;1521767;76;712;-68
2024/02/07 03:17:52;;;;;;;;;;;17.50;42.60;;;;;;1521152;76;716;-70
2024/02/07 03:19:54;;;;;;;;;;;17.50;42.60;;;;;;1520718;76;670;-70
2024/02/07 03:21:56;;;;;;;;;;;17.50;42.60;;;;;;1528422;76;664;-69
2024/02/07 03:23:59;;;;;;;;;;;17.50;42.60;;;;;;1521983;76;1925;-70
2024/02/07 03:26:07;;;;;;;;;;;17.50;42.50;;;;;;1523363;76;683;-70
2024/02/07 03:28:10;;;;;;;;;;;17.50;42.60;;;;;;1522812;76;747;-70
2024/02/07 03:30:16;;;;;;;;;;;17.50;42.60;;;;;;1525034;76;1151;-71
2024/02/07 03:32:19;;;;;;;;;;;17.50;42.60;;;;;;1518037;76;1089;-69
2024/02/07 03:34:21;;;;;;;;;;;17.50;42.60;;;;;;1526455;76;722;-70
2024/02/07 03:36:25;;;;;;;;;;;17.50;42.60;;;;;;1527404;76;676;-71
2024/02/07 03:38:28;;;;;;;;;;;17.50;42.60;;;;;;1523693;76;1161;-70
2024/02/07 03:40:29;;;;;;;;;;;17.60;42.60;;;;;;1524387;76;755;-70
2024/02/07 03:42:32;;;;;;;;;;;17.50;42.50;;;;;;1531119;76;1122;-71
2024/02/07 03:44:34;;;;;;;;;;;17.50;42.50;;;;;;1520063;76;1914;-70
2024/02/07 03:46:35;;;;;;;;;;;17.50;42.50;;;;;;1523941;76;733;-71
2024/02/07 03:48:37;;;;;;;;;;;17.50;42.50;;;;;;1524009;76;797;-70
2024/02/07 03:50:40;;;;;;;;;;;17.50;42.50;;;;;;1524994;76;599;-70
2024/02/07 03:52:48;;;;;;;;;;;17.50;42.50;;;;;;1522285;76;1113;-69
2024/02/07 03:54:53;;;;;;;;;;;17.50;42.50;;;;;;1523382;76;1676;-69
2024/02/07 03:56:53;;;;;;;;;;;17.50;42.50;;;;;;1524081;76;838;-71
2024/02/07 03:58:57;;;;;;;;;;;17.50;42.50;;;;;;1526077;76;708;-70
2024/02/07 04:00:58;;;;;;;;;;;17.50;42.40;;;;;;1521728;76;1166;-70
2024/02/07 04:03:00;;;;;;;;;;;17.50;42.50;;;;;;1523533;76;1090;-68
2024/02/07 04:05:02;;;;;;;;;;;17.50;42.50;;;;;;1524194;76;1932;-71
2024/02/07 04:07:04;;;;;;;;;;;17.50;42.50;;;;;;1523015;76;1318;-69
2024/02/07 04:09:06;;;;;;;;;;;17.50;42.50;;;;;;1523241;76;739;-70
2024/02/07 04:11:12;;;;;;;;;;;17.50;42.50;;;;;;1514403;76;664;-70
2024/02/07 05:15:49;;;;;;;;;;;17.50;42.40;;;;;;1524132;76;1659;-69
2024/02/07 05:17:51;;;;;;;;;;;17.50;42.50;;;;;;1525390;76;766;-69
2024/02/07 05:19:53;;;;;;;;;;;17.50;42.50;;;;;;1522134;76;726;-68
2024/02/07 05:21:57;;;;;;;;;;;17.50;42.50;;;;;;1524193;76;671;-71
2024/02/07 05:23:59;;;;;;;;;;;17.50;42.50;;;;;;1525375;76;1932;-70
2024/02/07 05:26:02;;;;;;;;;;;17.50;42.40;;;;;;1527752;76;733;-69
2024/02/07 05:28:05;;;;;;;;;;;17.50;42.50;;;;;;1521424;76;710;-69
2024/02/07 05:30:08;;;;;;;;;;;17.50;42.40;;;;;;1521952;76;636;-70
2024/02/07 05:32:11;;;;;;;;;;;17.50;42.40;;;;;;1535965;76;741;-70
2024/02/07 05:34:13;;;;;;;;;;;17.50;42.40;;;;;;1524015;76;777;-70
2024/02/07 05:36:15;;;;;;;;;;;17.50;42.40;;;;;;1528933;76;712;-70
2024/02/07 05:38:16;;;;;;;;;;;17.50;42.50;;;;;;1519935;76;740;-69
2024/02/07 05:40:18;;;;;;;;;;;17.50;42.30;;;;;;1521553;76;697;-68
2024/02/07 05:42:20;;;;;;;;;;;17.50;42.40;;;;;;1524459;76;1079;-68
2024/02/07 05:44:22;;;;;;;;;;;17.50;42.40;;;;;;1524373;76;2134;-70
2024/02/07 05:46:24;;;;;;;;;;;17.50;42.40;;;;;;1524614;76;751;-70
2024/02/07 05:48:26;;;;;;;;;;;17.60;42.40;;;;;;1522927;76;822;-69
2024/02/07 05:50:28;;;;;;;;;;;17.50;42.40;;;;;;1524289;76;735;-70
2024/02/07 05:52:30;;;;;;;;;;;17.60;42.30;;;;;;1524210;76;1107;-71
2024/02/07 05:54:33;;;;;;;;;;;17.60;42.30;;;;;;1521855;76;723;-70
2024/02/07 05:56:35;;;;;;;;;;;17.50;42.40;;;;;;1529823;76;606;-67
2024/02/07 05:58:39;;;;;;;;;;;17.50;42.30;;;;;;1525017;76;664;-70
2024/02/07 06:00:40;;;;;;;;;;;17.50;42.30;;;;;;1524684;76;1143;-71
2024/02/07 06:02:43;;;;;;;;;;;17.50;42.30;;;;;;1523029;76;1091;-69
2024/02/07 06:04:49;;;;;;;;;;;17.50;42.30;;;;;;1518474;76;1905;-71
2024/02/07 06:06:50;;;;;;;;;;;17.50;42.30;;;;;;1529935;76;1513;-70
2024/02/07 06:08:52;;;;;;;;;;;17.50;42.30;;;;;;1519876;76;651;-70
2024/02/07 06:10:54;;;;;;;;;;;17.50;42.30;;;;;;1521530;76;1014;-69
2024/02/07 06:12:56;;;;;;;;;;;17.60;42.30;;;;;;1524232;76;1164;-69
2024/02/07 06:15:02;;;;;;;;;;;17.60;42.20;;;;;;1526040;76;695;-70
2024/02/07 06:17:02;;;;;;;;;;;17.60;42.30;;;;;;1524796;76;964;-68
2024/02/07 06:19:04;;;;;;;;;;;17.60;42.30;;;;;;1523251;76;718;-69
2024/02/07 06:21:06;;;;;;;;;;;17.50;42.20;;;;;;1523234;76;672;-69
2024/02/07 06:23:08;;;;;;;;;;;17.60;42.30;;;;;;1523482;76;1169;-70
2024/02/07 06:25:09;;;;;;;;;;;17.50;42.30;;;;;;1521790;76;1929;-70
2024/02/07 06:27:12;;;;;;;;;;;17.60;42.20;;;;;;1527419;76;732;-70
2024/02/07 06:29:14;;;;;;;;;;;17.60;42.20;;;;;;1525089;76;778;-70
2024/02/07 06:31:16;;;;;;;;;;;17.60;42.20;;;;;;1526634;76;683;-70
2024/02/07 06:33:18;;;;;;;;;;;17.50;42.20;;;;;;1523155;76;1203;-67
2024/02/07 06:35:20;;;;;;;;;;;17.60;42.20;;;;;;1523843;76;730;-68
2024/02/07 06:37:22;;;;;;;;;;;17.60;42.20;;;;;;1526260;76;716;-70
2024/02/07 06:39:24;;;;;;;;;;;17.60;42.20;;;;;;1520605;76;655;-69
2024/02/07 06:41:26;;;;;;;;;;;17.60;42.10;;;;;;1523386;76;657;-69
2024/02/07 06:43:28;;;;;;;;;;;17.60;42.20;;;;;;1524488;76;1097;-70
2024/02/07 06:45:30;;;;;;;;;;;17.60;42.10;;;;;;1519892;76;1938;-69
2024/02/07 06:47:32;;;;;;;;;;;17.60;42.10;;;;;;1522139;76;718;-70
2024/02/07 06:49:40;;;;;;;;;;;17.70;42.20;;;;;;1525955;76;792;-70
2024/02/07 06:51:41;;;;;;;;;;;17.60;42.10;;;;;;1521212;76;695;-69
2024/02/07 06:53:43;;;;;;;;;;;17.60;42.10;;;;;;1522121;76;1138;-68
2024/02/07 06:55:45;;;;;;;;;;;17.60;42.10;;;;;;1530206;76;742;-68
2024/02/07 06:57:47;;;;;;;;;;;17.70;42.20;;;;;;1524830;76;641;-69
2024/02/07 06:59:49;;;;;;;;;;;17.60;42.10;;;;;;1523243;76;745;-70
2024/02/07 07:01:51;;;;;;;;;;;17.60;42.10;;;;;;1522245;76;653;-70
2024/02/07 07:03:53;;;;;;;;;;;17.60;42.10;;;;;;1525363;76;1141;-69
2024/02/07 07:05:55;;;;;;;;;;;17.70;42.10;;;;;;1521767;76;1909;-70
2024/02/07 07:07:57;;;;;;;;;;;17.60;42.00;;;;;;1488137;78;1365;-70
2024/02/07 07:10:00;;;;;;;;;;;17.60;42.00;;;;;;1524317;76;623;-70
2024/02/07 07:12:01;;;;;;;;;;;17.60;42.00;;;;;;1523903;76;731;-70
2024/02/07 07:14:03;;;;;;;;;;;17.60;42.00;;;;;;1521738;76;1109;-70
2024/02/07 07:16:07;;;;;;;;;;;17.70;42.10;;;;;;1528660;76;728;-67
2024/02/07 07:18:09;;;;;;;;;;;17.70;42.10;;;;;;1522485;76;957;-70
2024/02/07 07:20:11;;;;;;;;;;;17.60;42.10;;;;;;1524109;76;735;-70
2024/02/07 07:22:13;;;;;;;;;;;17.60;42.00;;;;;;1523722;76;1134;-69
2024/02/07 07:24:15;;;;;;;;;;;17.60;42.00;;;;;;1524854;76;652;-69
2024/02/07 07:26:17;;;;;;;;;;;17.60;42.00;;;;;;1528927;76;1936;-69
2024/02/07 07:28:18;;;;;;;;;;;17.60;41.90;;;;;;1522887;76;723;-69
2024/02/07 07:30:20;;;;;;;;;;;17.60;41.90;;;;;;1523347;76;718;-70
2024/02/07 07:32:22;;;;;;;;;;;17.80;42.10;;;;;;1521518;76;1179;-69
2024/02/07 07:34:24;;;;;;;;;;;17.70;42.00;;;;;;1529960;76;740;-70
2024/02/07 07:36:27;;;;;;;;;;;17.70;42.10;;;;;;1523015;76;670;-70
2024/02/07 07:38:29;;;;;;;;;;;17.60;41.90;;;;;;1523060;76;659;-69
2024/02/07 07:40:31;;;;;;;;;;;17.60;41.90;;;;;;1526231;76;724;-69
2024/02/07 07:42:33;;;;;;;;;;;17.70;42.00;;;;;;1525421;76;1162;-68
2024/02/07 07:44:38;;;;;;;;;;;17.50;41.90;;;;;;1522194;76;1930;-69
2024/02/07 07:46:40;;;;;;;;;;;17.60;41.90;;;;;;1528538;76;1150;-70
2024/02/07 07:48:42;;;;;;;;;;;17.70;42.00;;;;;;1522400;76;704;-69
2024/02/07 07:50:44;;;;;;;;;;;17.60;41.90;;;;;;1521749;76;775;-70
2024/02/07 07:52:45;;;;;;;;;;;17.60;41.90;;;;;;1524167;76;1115;-70
2024/02/07 07:54:47;;;;;;;;;;;17.60;41.90;;;;;;1523944;76;727;-70
2024/02/07 07:56:49;;;;;;;;;;;17.60;41.90;;;;;;1524575;76;712;-69
2024/02/07 07:58:51;;;;;;;;;;;17.70;42.00;;;;;;1524763;76;738;-69
2024/02/07 08:00:53;;;;;;;;;;;17.60;41.90;;;;;;1522493;76;674;-69
2024/02/07 08:02:55;;;;;;;;;;;17.70;41.90;;;;;;1524923;76;1143;-70
2024/02/07 08:04:57;;;;;;;;;;;17.60;41.80;;;;;;1524114;76;1926;-70
2024/02/07 08:06:59;;;;;;;;;;;17.70;42.00;;;;;;1524985;76;1471;-67
2024/02/07 08:09:01;;;;;;;;;;;17.70;42.00;;;;;;1524222;76;613;-70
2024/02/07 08:11:03;;;;;;;;;;;17.60;41.80;;;;;;1523981;76;696;-69
2024/02/07 08:13:05;;;;;;;;;;;17.70;41.90;;;;;;1524579;76;1141;-68
2024/02/07 08:15:07;;;;;;;;;;;17.60;41.80;;;;;;1525661;76;724;-70
2024/02/07 08:17:10;;;;;;;;;;;17.70;41.90;;;;;;1527807;76;709;-70
2024/02/07 08:19:12;;;;;;;;;;;17.70;41.90;;;;;;1524273;76;684;-69
2024/02/07 08:21:14;;;;;;;;;;;17.70;41.80;;;;;;1525936;76;749;-69
2024/02/07 08:23:16;;;;;;;;;;;17.60;41.80;;;;;;1520576;76;1142;-69
2024/02/07 08:25:18;;;;;;;;;;;17.60;41.80;;;;;;1523942;76;1944;-70
2024/02/07 08:27:19;;;;;;;;;;;17.60;41.80;;;;;;1523257;76;681;-69
2024/02/07 08:29:22;;;;;;;;;;;17.70;41.90;;;;;;1526620;76;854;-69
2024/02/07 08:31:23;;;;;;;;;;;17.60;41.80;;;;;;1522890;76;740;-69
2024/02/07 08:33:25;;;;;;;;;;;17.70;41.90;;;;;;1525390;76;1190;-70
2024/02/07 08:35:27;;;;;;;;;;;17.70;41.80;;;;;;1520828;76;683;-70
2024/02/07 08:37:30;;;;;;;;;;;17.60;41.80;;;;;;1523714;76;723;-70
2024/02/07 08:39:31;;;;;;;;;;;17.70;41.90;;;;;;1523804;76;681;-68
2024/02/07 08:41:33;;;;;;;;;;;17.70;41.90;;;;;;1525883;76;766;-69
2024/02/07 08:43:35;;;;;;;;;;;17.60;41.80;;;;;;1525396;76;1123;-70
2024/02/07 08:45:37;;;;;;;;;;;17.60;41.80;;;;;;1525833;76;1936;-68
2024/02/07 08:47:39;;;;;;;;;;;17.70;41.80;;;;;;1526755;76;725;-70
2024/02/07 08:49:41;;;;;;;;;;;17.70;41.80;;;;;;1523098;76;646;-70
2024/02/07 08:51:43;;;;;;;;;;;17.60;41.80;;;;;;1528098;76;798;-69
2024/02/07 08:53:46;;;;;;;;;;;17.60;41.80;;;;;;1521120;76;1119;-69
2024/02/07 08:55:48;;;;;;;;;;;17.50;41.80;;;;;;1526948;76;703;-70
2024/02/07 08:57:50;;;;;;;;;;;17.60;41.80;;;;;;1524943;76;668;-70
2024/02/07 08:59:52;;;;;;;;;;;17.60;41.80;;;;;;1522292;76;605;-69
2024/02/07 09:01:54;;;;;;;;;;;17.70;41.90;;;;;;1524631;76;715;-69
2024/02/07 09:03:59;;;;;;;;;;;17.60;41.80;;;;;;1524235;76;1103;-67
2024/02/07 09:05:59;;;;;;;;;;;17.70;41.90;;;;;;1523020;76;1941;-70
2024/02/07 09:08:01;;;;;;;;;;;17.70;41.80;;;;;;1521947;76;1468;-69
2024/02/07 09:10:03;;;;;;;;;;;17.60;41.80;;;;;;1522696;76;707;-69
2024/02/07 09:12:05;;;;;;;;;;;17.60;41.80;;;;;;1524552;76;752;-70
2024/02/07 09:14:07;;;;;;;;;;;17.60;41.70;;;;;;1523731;76;1087;-70
2024/02/07 09:16:09;;;;;;;;;;;17.60;41.80;;;;;;1524719;76;688;-70
2024/02/07 09:18:11;;;;;;;;;;;17.60;41.70;;;;;;1525044;76;733;-70
2024/02/07 09:20:13;;;;;;;;;;;17.70;41.80;;;;;;1523793;76;893;-69
2024/02/07 09:22:16;;;;;;;;;;;17.70;41.80;;;;;;1523365;76;1116;-69
2024/02/07 09:24:18;;;;;;;;;;;17.60;41.70;;;;;;1523846;76;633;-71
2024/02/07 09:26:20;;;;;;;;;;;17.60;41.70;;;;;;1525324;76;1946;-67
2024/02/07 09:28:22;;;;;;;;;;;17.70;41.80;;;;;;1524239;76;584;-70
2024/02/07 09:30:24;;;;;;;;;;;17.70;41.80;;;;;;1526005;76;724;-69
2024/02/07 09:32:25;;;;;;;;;;;17.60;41.70;;;;;;1522131;76;1115;-70
2024/02/07 09:34:27;;;;;;;;;;;17.60;41.60;;;;;;1524664;76;692;-69
2024/02/07 09:36:29;;;;;;;;;;;17.60;41.60;;;;;;1523599;76;692;-70
2024/02/07 09:38:31;;;;;;;;;;;17.70;41.70;;;;;;1523234;76;700;-69
2024/02/07 09:40:33;;;;;;;;;;;17.70;41.80;;;;;;1522002;76;646;-70
2024/02/07 09:42:39;;;;;;;;;;;17.60;41.80;;;;;;1524085;76;1089;-70
2024/02/07 09:44:45;;;;;;;;;;;17.60;41.70;;;;;;1520942;76;944;-71
2024/02/07 09:46:45;;;;;;;;;;;17.60;41.70;;;;;;1522840;76;1909;-71
2024/02/07 09:48:47;;;;;;;;;;;17.70;41.90;;;;;;1523481;76;707;-71
2024/02/07 09:50:50;;;;;;;;;;;17.60;41.70;;;;;;1524012;76;805;-70
2024/02/07 09:52:52;;;;;;;;;;;17.60;41.70;;;;;;1527685;76;1216;-70
2024/02/07 09:54:55;;;;;;;;;;;17.60;41.60;;;;;;1525204;76;731;-71
2024/02/07 09:56:57;;;;;;;;;;;17.70;41.80;;;;;;1524889;76;738;-71
2024/02/07 09:59:00;;;;;;;;;;;17.60;41.70;;;;;;1524845;76;713;-71
2024/02/07 10:01:03;;;;;;;;;;;17.70;41.80;;;;;;1524587;76;708;-69
2024/02/07 10:03:06;;;;;;;;;;;17.70;41.80;;;;;;1523777;76;1149;-71
2024/02/07 10:05:08;;;;;;;;;;;17.70;41.70;;;;;;1522642;76;736;-71
2024/02/07 10:07:10;;;;;;;;;;;17.60;41.70;;;;;;1522106;76;1938;-70
2024/02/07 10:09:12;;;;;;;;;;;17.70;41.70;;;;;;1523709;76;734;-71
2024/02/07 10:11:14;;;;;;;;;;;17.60;41.60;;;;;;1523859;76;662;-69
2024/02/07 10:13:16;;;;;;;;;;;17.60;41.60;;;;;;1523819;76;1186;-71
2024/02/07 10:15:18;;;;;;;;;;;17.60;41.60;;;;;;1524619;76;667;-70
2024/02/07 10:17:20;;;;;;;;;;;17.60;41.60;;;;;;1531689;76;822;-71
2024/02/07 10:19:22;;;;;;;;;;;17.60;41.60;;;;;;1525036;76;610;-70
2024/02/07 10:21:36;;;;;;;;;;;17.60;41.70;;;;;;1522067;76;740;-69
2024/02/07 10:23:38;;;;;;;;;;;17.60;41.70;;;;;;1520659;76;1146;-71
2024/02/07 10:25:45;;;;;;;;;;;17.60;41.60;;;;;;1523136;76;1917;-71
2024/02/07 10:27:44;;;;;;;;;;;17.60;41.50;;;;;;1491462;78;1094;-70
2024/02/07 10:29:46;;;;;;;;;;;17.60;41.50;;;;;;1523078;76;678;-70
2024/02/07 10:31:55;;;;;;;;;;;17.60;41.60;;;;;;1523583;76;597;-71
2024/02/07 10:34:00;;;;;;;;;;;17.60;41.60;;;;;;1521002;76;1180;-70
2024/02/07 10:36:02;;;;;;;;;;;17.60;41.60;;;;;;1522603;76;703;-71
2024/02/07 10:38:04;;;;;;;;;;;17.60;41.50;;;;;;1521341;76;665;-71
2024/02/07 10:40:06;;;;;;;;;;;17.60;41.60;;;;;;1524267;76;654;-70
2024/02/07 10:42:08;;;;;;;;;;;17.70;41.70;;;;;;1524874;76;778;-70
2024/02/07 10:44:12;;;;;;;;;;;17.60;41.60;;;;;;1521714;76;1118;-70
2024/02/07 10:46:14;;;;;;;;;;;17.60;41.60;;;;;;1528036;76;1902;-69
2024/02/07 10:48:16;;;;;;;;;;;17.60;41.50;;;;;;1524153;76;634;-70
2024/02/07 10:50:18;;;;;;;;;;;17.60;41.60;;;;;;1525631;76;743;-70
2024/02/07 10:52:20;;;;;;;;;;;17.70;41.70;;;;;;1522722;76;1178;-69
2024/02/07 10:54:21;;;;;;;;;;;17.70;41.70;;;;;;1524086;76;541;-70
2024/02/07 10:56:23;;;;;;;;;;;17.60;41.60;;;;;;1530299;76;707;-71
2024/02/07 10:58:26;;;;;;;;;;;17.70;41.70;;;;;;1524874;76;743;-70
2024/02/07 11:00:27;;;;;;;;;;;17.60;41.60;;;;;;1522499;76;745;-71
2024/02/07 11:02:29;;;;;;;;;;;17.60;41.60;;;;;;1524834;76;1166;-70
2024/02/07 11:04:32;;;;;;;;;;;17.60;41.50;;;;;;1493764;78;740;-71
2024/02/07 11:06:35;;;;;;;;;;;17.70;41.60;;;;;;1531497;76;2057;-71
2024/02/07 11:08:37;;;;;;;;;;;17.60;41.50;;;;;;1489431;78;1465;-69
2024/02/07 11:10:39;;;;;;;;;;;17.70;41.70;;;;;;1523791;76;677;-70
2024/02/07 11:12:41;;;;;;;;;;;17.60;41.60;;;;;;1523484;76;1114;-70
2024/02/07 11:14:45;;;;;;;;;;;17.60;41.50;;;;;;1525401;76;713;-71
2024/02/07 11:16:47;;;;;;;;;;;17.60;41.50;;;;;;1524525;76;759;-70
2024/02/07 11:18:49;;;;;;;;;;;17.60;41.50;;;;;;1523848;76;705;-71
2024/02/07 11:20:51;;;;;;;;;;;17.60;41.50;;;;;;1524719;76;613;-70
2024/02/07 11:22:54;;;;;;;;;;;17.70;41.60;;;;;;1520970;76;1146;-71
2024/02/07 11:24:56;;;;;;;;;;;17.70;41.70;;;;;;1523595;76;708;-69
2024/02/07 11:26:58;;;;;;;;;;;17.60;41.50;;;;;;1525816;76;1932;-69
2024/02/07 11:28:59;;;;;;;;;;;17.60;41.50;;;;;;1525260;76;709;-70
2024/02/07 11:31:02;;;;;;;;;;;17.60;41.60;;;;;;1523950;76;646;-70
2024/02/07 11:33:04;;;;;;;;;;;17.70;41.70;;;;;;1522840;76;1255;-71
2024/02/07 11:35:09;;;;;;;;;;;17.60;41.50;;;;;;1533390;76;596;-70
2024/02/07 11:37:11;;;;;;;;;;;17.60;41.60;;;;;;1498122;78;748;-71
2024/02/07 11:39:17;;;;;;;;;;;17.70;41.60;;;;;;1520366;76;718;-70
2024/02/07 11:41:23;;;;;;;;;;;17.60;41.50;;;;;;1524416;76;691;-71
2024/02/07 11:43:25;;;;;;;;;;;17.60;41.50;;;;;;1523638;76;1118;-70
2024/02/07 11:45:27;;;;;;;;;;;17.60;41.50;;;;;;1523490;76;740;-71
2024/02/07 11:47:33;;;;;;;;;;;17.70;41.60;;;;;;1528129;76;1931;-69
2024/02/07 11:49:34;;;;;;;;;;;17.60;41.50;;;;;;1525392;76;865;-71
2024/02/07 11:51:36;;;;;;;;;;;17.60;41.50;;;;;;1519363;76;1151;-70
2024/02/07 11:53:40;;;;;;;;;;;17.60;41.50;;;;;;1522770;76;1161;-69
2024/02/07 11:55:43;;;;;;;;;;;17.60;41.50;;;;;;1523363;76;1120;-70
2024/02/07 11:57:46;;;;;;;;;;;17.60;41.50;;;;;;1528801;76;1013;-70
2024/02/07 11:59:48;;;;;;;;;;;17.70;41.60;;;;;;1523915;76;667;-71
2024/02/07 12:01:50;;;;;;;;;;;17.70;41.60;;;;;;1525060;76;750;-69
2024/02/07 12:04:00;;;;;;;;;;;17.60;41.50;;;;;;1525687;76;1165;-68
2024/02/07 12:06:01;;;;;;;;;;;17.60;41.60;;;;;;1523653;76;1137;-71
2024/02/07 12:08:03;;;;;;;;;;;17.60;41.60;;;;;;1520676;76;1929;-71
2024/02/07 12:10:05;;;;;;;;;;;17.60;41.50;;;;;;1523922;76;604;-71
2024/02/07 12:12:12;;;;;;;;;;;17.60;41.50;;;;;;1493463;78;730;-71
2024/02/07 12:14:12;;;;;;;;;;;17.60;41.50;;;;;;1496218;77;1179;-71
2024/02/07 12:16:14;;;;;;;;;;;17.60;41.50;;;;;;1495743;78;713;-70
2024/02/07 12:18:16;;;;;;;;;;;17.60;41.50;;;;;;1490762;78;739;-70
2024/02/07 12:20:18;;;;;;;;;;;17.60;41.50;;;;;;1494624;78;800;-71
2024/02/07 12:22:20;;;;;;;;;;;17.60;41.50;;;;;;1543877;75;1175;-71
2024/02/07 12:24:22;;;;;;;;;;;17.60;41.50;;;;;;1569823;74;678;-71
2024/02/07 12:26:28;;;;;;;;;;;17.60;41.50;;;;;;1571891;74;1934;-70
2024/02/07 12:28:27;;;;;;;;;;;17.60;41.50;;;;;;1570188;74;783;-71
2024/02/07 12:30:29;;;;;;;;;;;17.70;41.60;;;;;;1573808;74;719;-69
2024/02/07 12:32:32;;;;;;;;;;;17.60;41.60;;;;;;1568964;74;1112;-71
2024/02/07 12:34:34;;;;;;;;;;;17.60;41.60;;;;;;1570325;74;736;-71
2024/02/07 12:36:35;;;;;;;;;;;17.60;41.50;;;;;;1574148;74;670;-70
2024/02/07 12:38:37;;;;;;;;;;;17.60;41.60;;;;;;1567174;74;679;-70
2024/02/07 12:40:39;;;;;;;;;;;17.60;41.50;;;;;;1568200;74;722;-71
2024/02/07 12:42:41;;;;;;;;;;;17.60;41.50;;;;;;1573645;74;1190;-69
2024/02/07 12:44:43;;;;;;;;;;;17.60;41.60;;;;;;1576198;74;670;-71
2024/02/07 12:46:45;;;;;;;;;;;17.60;41.60;;;;;;1572447;74;1922;-70
2024/02/07 12:48:47;;;;;;;;;;;17.60;41.50;;;;;;1572489;74;731;-70
2024/02/07 12:50:49;;;;;;;;;;;17.60;41.50;;;;;;1573012;74;640;-71
2024/02/07 12:52:51;;;;;;;;;;;17.60;41.50;;;;;;1568000;74;1176;-70
2024/02/07 12:54:53;;;;;;;;;;;17.60;41.50;;;;;;1570346;74;537;-70
2024/02/07 12:56:55;;;;;;;;;;;17.60;41.50;;;;;;1571239;74;739;-69
2024/02/07 12:58:56;;;;;;;;;;;17.60;41.50;;;;;;1568161;74;571;-69
2024/02/07 13:01:01;;;;;;;;;;;17.60;41.50;;;;;;1565923;74;677;-69
2024/02/07 13:03:04;;;;;;;;;;;17.60;41.50;;;;;;1573686;74;1143;-68
2024/02/07 13:05:06;;;;;;;;;;;17.60;41.50;;;;;;1570504;74;725;-68
2024/02/07 13:07:15;;;;;;;;;;;17.60;41.50;;;;;;1577225;74;1925;-69
2024/02/07 13:09:12;;;;;;;;;;;17.60;41.50;;;;;;1568882;74;981;-70
2024/02/07 13:11:14;;;;;;;;;;;17.60;41.70;;;;;;1570809;74;723;-70
2024/02/07 13:13:16;;;;;;;;;;;17.60;41.50;;;;;;1573389;74;1160;-69
2024/02/07 13:15:18;;;;;;;;;;;17.60;41.50;;;;;;1572711;74;806;-70